Time;durP1;ratioP1;P1;durP2;ratioP2;P2;SDS_P1;SDS_P2;PMS_P1;PMS_P2;Temp;Humidity;BMP_temperature;BMP_pressure;BME280_temperature;BME280_humidity;BME280_pressure;Samples;Min_cycle;Max_cycle;Signal;HPM_P1;HPM_P2
2020/12/11 00:02:24;;;;;;;138.68;51.67;;;-0.60;99.90;;;;;;5072530;28;20028;-84
2020/12/11 00:04:50;;;;;;;125.40;48.85;;;-0.60;99.90;;;;;;5072443;28;20151;-83
2020/12/11 00:07:16;;;;;;;123.03;45.50;;;-0.60;99.90;;;;;;5071992;28;20489;-84
2020/12/11 00:09:41;;;;;;;123.05;44.35;;;-0.60;99.90;;;;;;5072603;28;20113;-83
2020/12/11 00:12:07;;;;;;;119.20;46.15;;;-0.60;99.90;;;;;;5073712;28;20028;-84
2020/12/11 00:15:13;;;;;;;120.72;44.55;;;-0.60;99.90;;;;;;5131190;27;20353;-83
2020/12/11 00:17:39;;;;;;;121.03;44.80;;;-0.60;99.90;;;;;;5126609;28;20435;-82
2020/12/11 00:20:06;;;;;;;108.15;44.33;;;-0.60;99.90;;;;;;5092520;28;20106;-82
2020/12/11 00:22:31;;;;;;;116.72;44.35;;;-0.60;99.90;;;;;;5110336;28;20035;-82
2020/12/11 00:24:57;;;;;;;124.57;47.70;;;-0.60;99.90;;;;;;5092257;28;20024;-82
2020/12/11 00:27:23;;;;;;;118.63;49.35;;;-0.60;99.90;;;;;;5092233;28;20069;-82
2020/12/11 00:29:48;;;;;;;109.93;45.78;;;-0.60;99.90;;;;;;5110526;28;20485;-82
2020/12/11 00:32:14;;;;;;;115.25;46.35;;;-0.60;99.90;;;;;;5110361;28;20031;-82
2020/12/11 00:34:41;;;;;;;116.13;44.13;;;-0.70;99.90;;;;;;5126201;28;20540;-82
2020/12/11 00:37:07;;;;;;;115.82;42.70;;;-0.70;99.90;;;;;;5126136;28;20393;-82
2020/12/11 00:39:33;;;;;;;119.20;45.30;;;-0.70;99.90;;;;;;5126207;28;20016;-82
2020/12/11 00:41:59;;;;;;;122.95;44.90;;;-0.70;99.90;;;;;;5091966;28;20022;-83
2020/12/11 00:44:25;;;;;;;139.38;49.40;;;-0.80;99.90;;;;;;5110116;28;20024;-82
2020/12/11 00:46:51;;;;;;;127.22;46.40;;;-0.80;99.90;;;;;;5110068;28;20028;-83
2020/12/11 00:49:17;;;;;;;124.32;47.03;;;-0.80;99.90;;;;;;5110072;28;20020;-82
2020/12/11 00:51:42;;;;;;;120.63;45.83;;;-0.80;99.90;;;;;;5125908;28;20023;-83
2020/12/11 00:54:08;;;;;;;121.38;46.78;;;-0.80;99.90;;;;;;5109727;28;20481;-82
2020/12/11 00:56:34;;;;;;;115.10;44.28;;;-0.80;99.90;;;;;;5091807;28;20050;-83
2020/12/11 00:58:59;;;;;;;115.60;44.42;;;-0.80;99.90;;;;;;5091729;28;20063;-82
2020/12/11 01:01:25;;;;;;;125.38;46.72;;;-0.80;99.90;;;;;;5091716;28;20572;-81
2020/12/11 01:03:50;;;;;;;112.18;41.45;;;-0.80;99.90;;;;;;5091567;28;20058;-82
2020/12/11 01:06:16;;;;;;;123.78;43.15;;;-0.80;99.90;;;;;;5091547;28;20038;-81
2020/12/11 01:08:42;;;;;;;123.55;44.72;;;-0.80;99.90;;;;;;5109579;28;20534;-82
2020/12/11 01:11:08;;;;;;;120.25;46.97;;;-0.80;99.90;;;;;;5109655;28;20074;-83
2020/12/11 01:13:33;;;;;;;125.18;44.17;;;-0.70;99.90;;;;;;5091226;28;20039;-84
2020/12/11 01:15:59;;;;;;;122.45;44.70;;;-0.70;99.90;;;;;;5091422;28;20031;-83
2020/12/11 01:18:25;;;;;;;115.63;46.22;;;-0.70;99.90;;;;;;5109621;28;20103;-83
2020/12/11 01:20:50;;;;;;;121.75;43.67;;;-0.60;99.90;;;;;;5109571;28;20023;-82
2020/12/11 01:23:16;;;;;;;107.25;44.88;;;-0.60;99.90;;;;;;5090903;28;20084;-82
2020/12/11 01:25:42;;;;;;;107.68;43.00;;;-0.60;99.90;;;;;;5116666;28;20024;-82
2020/12/11 01:28:08;;;;;;;110.15;43.72;;;-0.60;99.90;;;;;;5111478;28;20149;-82
2020/12/11 01:30:33;;;;;;;112.07;41.50;;;-0.60;99.90;;;;;;5110799;28;20031;-81
2020/12/11 01:32:59;;;;;;;106.85;42.47;;;-0.60;99.90;;;;;;5077459;28;20125;-82
2020/12/11 01:35:24;;;;;;;100.97;39.83;;;-0.60;99.90;;;;;;5095694;28;20024;-83
2020/12/11 01:37:50;;;;;;;111.15;41.28;;;-0.60;99.90;;;;;;5095143;28;20031;-82
2020/12/11 01:40:16;;;;;;;107.05;42.17;;;-0.50;99.90;;;;;;5111277;28;20028;-82
2020/12/11 01:42:42;;;;;;;100.00;41.22;;;-0.50;99.90;;;;;;5095543;28;20058;-82
2020/12/11 01:45:08;;;;;;;114.63;43.45;;;-0.60;99.90;;;;;;5077026;28;20036;-82
2020/12/11 01:47:39;;;;;;;113.25;44.35;;;-0.50;99.90;;;;;;5095413;28;20070;-82
2020/12/11 01:50:07;;;;;;;104.30;42.67;;;-0.50;99.90;;;;;;5077150;28;20020;-83
2020/12/11 01:52:33;;;;;;;100.35;40.30;;;-0.50;99.90;;;;;;5077213;28;20020;-82
2020/12/11 01:54:58;;;;;;;111.05;41.42;;;-0.50;99.90;;;;;;5077137;28;20031;-82
2020/12/11 02:00:47;;;;;;;115.35;42.88;;;-0.50;99.90;;;;;;5093794;28;20119;-83
2020/12/11 02:03:14;;;;;;;107.85;42.20;;;-0.60;99.90;;;;;;5076894;28;20020;-82
2020/12/11 02:05:39;;;;;;;111.40;43.80;;;-0.50;99.90;;;;;;5094743;28;20051;-82
2020/12/11 02:08:05;;;;;;;101.40;41.60;;;-0.50;99.90;;;;;;5076915;28;20080;-82
2020/12/11 02:10:31;;;;;;;95.65;38.45;;;-0.50;99.90;;;;;;5076972;28;20485;-82
2020/12/11 02:13:07;;;;;;;97.32;36.15;;;-0.50;99.90;;;;;;5076530;28;20020;-82
2020/12/11 02:15:34;;;;;;;103.25;37.58;;;-0.50;99.90;;;;;;5076692;28;20032;-83
2020/12/11 02:18:00;;;;;;;93.55;37.55;;;-0.50;99.90;;;;;;5076654;28;20470;-83
2020/12/11 02:20:25;;;;;;;98.63;39.25;;;-0.60;99.90;;;;;;5075764;28;20024;-82
2020/12/11 02:22:51;;;;;;;98.60;40.33;;;-0.60;99.90;;;;;;5094512;28;20073;-82
2020/12/11 02:25:17;;;;;;;96.75;39.53;;;-0.60;99.90;;;;;;5076572;28;20040;-83
2020/12/11 02:27:46;;;;;;;98.13;38.95;;;-0.70;99.90;;;;;;5076774;28;20028;-82
2020/12/11 02:30:12;;;;;;;88.43;36.47;;;-0.60;99.90;;;;;;5075497;28;20017;-82
2020/12/11 02:32:37;;;;;;;88.15;36.25;;;-0.60;99.90;;;;;;5094578;28;20107;-82
2020/12/11 02:35:03;;;;;;;89.75;35.28;;;-0.60;99.90;;;;;;5094446;28;20043;-81
2020/12/11 02:37:29;;;;;;;86.45;34.38;;;-0.60;99.90;;;;;;5074674;28;20038;-82
2020/12/11 02:39:54;;;;;;;95.75;36.53;;;-0.60;99.90;;;;;;5076352;28;20047;-81
2020/12/11 02:42:20;;;;;;;91.45;35.72;;;-0.60;99.90;;;;;;5075844;28;20393;-82
2020/12/11 02:44:45;;;;;;;98.43;38.90;;;-0.60;99.90;;;;;;5076237;28;20031;-82
2020/12/11 02:47:14;;;;;;;81.70;35.33;;;-0.60;99.90;;;;;;5076075;28;20021;-83
2020/12/11 02:49:40;;;;;;;77.80;33.58;;;-0.60;99.90;;;;;;5076134;28;20017;-82
2020/12/11 02:52:06;;;;;;;84.95;35.08;;;-0.60;99.90;;;;;;5076016;28;20020;-83
2020/12/11 02:54:31;;;;;;;93.72;33.47;;;-0.60;99.90;;;;;;5094132;28;20032;-82
2020/12/11 02:56:57;;;;;;;83.60;33.15;;;-0.60;99.90;;;;;;5075056;28;20035;-82
2020/12/11 02:59:23;;;;;;;95.47;38.83;;;-0.60;99.90;;;;;;5093969;28;20020;-81
2020/12/11 03:01:48;;;;;;;91.68;35.83;;;-0.60;99.90;;;;;;5075747;28;20032;-82
2020/12/11 03:04:14;;;;;;;93.68;36.25;;;-0.60;99.90;;;;;;5075833;28;20021;-81
2020/12/11 03:06:39;;;;;;;86.22;33.63;;;-0.60;99.90;;;;;;5109666;28;20019;-82
2020/12/11 03:09:05;;;;;;;89.05;35.22;;;-0.70;99.90;;;;;;5093916;28;20420;-82
2020/12/11 03:11:31;;;;;;;85.43;34.25;;;-0.70;99.90;;;;;;5093728;28;20036;-82
2020/12/11 03:13:56;;;;;;;84.45;35.33;;;-0.70;99.90;;;;;;5075391;28;20039;-82
2020/12/11 03:16:22;;;;;;;79.38;34.72;;;-0.70;99.90;;;;;;5075608;28;20020;-82
2020/12/11 03:18:48;;;;;;;92.18;35.53;;;-0.70;99.90;;;;;;5075363;28;20020;-82
2020/12/11 03:21:15;;;;;;;73.00;34.65;;;-0.70;99.90;;;;;;5093637;28;20103;-82
2020/12/11 03:23:41;;;;;;;82.47;35.40;;;-0.60;99.90;;;;;;5075448;28;20027;-82
2020/12/11 03:26:06;;;;;;;79.38;32.65;;;-0.60;99.90;;;;;;5075476;28;20390;-82
2020/12/11 03:28:33;;;;;;;78.25;35.15;;;-0.60;99.90;;;;;;5093523;28;20035;-82
2020/12/11 03:30:59;;;;;;;76.30;32.28;;;-0.60;99.90;;;;;;5075321;28;20077;-82
2020/12/11 03:33:25;;;;;;;79.05;33.15;;;-0.60;99.90;;;;;;5074664;28;20431;-83
2020/12/11 03:35:52;;;;;;;84.97;35.95;;;-0.60;99.90;;;;;;5093342;28;20077;-82
2020/12/11 03:38:17;;;;;;;75.07;32.58;;;-0.60;99.90;;;;;;5075166;28;20020;-82
2020/12/11 03:40:43;;;;;;;86.20;34.40;;;-0.60;99.90;;;;;;5075249;28;20518;-82
2020/12/11 03:43:09;;;;;;;77.85;32.85;;;-0.60;99.90;;;;;;5093221;28;20024;-84
2020/12/11 03:45:34;;;;;;;81.15;33.58;;;-0.60;99.90;;;;;;5074898;28;20122;-85
2020/12/11 03:48:00;;;;;;;82.15;33.60;;;-0.60;99.90;;;;;;5092928;28;20102;-82
2020/12/11 03:50:26;;;;;;;80.57;33.72;;;-0.60;99.90;;;;;;5108946;28;20489;-82
2020/12/11 03:52:51;;;;;;;81.28;32.00;;;-0.60;99.90;;;;;;5093177;28;20028;-82
2020/12/11 03:55:17;;;;;;;73.18;31.08;;;-0.60;99.90;;;;;;5074992;28;20423;-81
2020/12/11 03:57:43;;;;;;;73.88;32.13;;;-0.60;99.90;;;;;;5092898;28;20036;-81
2020/12/11 04:00:08;;;;;;;78.75;30.67;;;-0.60;99.90;;;;;;5093107;28;20389;-81
2020/12/11 04:02:34;;;;;;;70.63;30.83;;;-0.50;99.90;;;;;;5074921;28;20028;-82
2020/12/11 04:05:05;;;;;;;78.82;33.15;;;-0.50;99.90;;;;;;5092998;28;20030;-82
2020/12/11 04:07:31;;;;;;;75.03;30.65;;;-0.50;99.90;;;;;;5054906;28;20032;-82
2020/12/11 04:09:56;;;;;;;78.05;31.42;;;-0.50;99.90;;;;;;5054826;28;20049;-82
2020/12/11 04:12:22;;;;;;;81.00;30.90;;;-0.40;99.90;;;;;;5072740;28;20025;-83
2020/12/11 04:14:48;;;;;;;73.78;30.85;;;-0.40;99.90;;;;;;5065468;28;20036;-82
2020/12/11 04:17:13;;;;;;;77.45;31.15;;;-0.40;99.90;;;;;;5074818;28;20020;-83
2020/12/11 04:19:40;;;;;;;71.90;30.98;;;-0.40;99.90;;;;;;5092964;28;20024;-83
2020/12/11 04:22:06;;;;;;;77.28;32.50;;;-0.30;99.90;;;;;;5092771;28;20461;-83
2020/12/11 04:24:31;;;;;;;72.93;30.20;;;-0.30;99.90;;;;;;5074780;28;20024;-84
2020/12/11 04:26:57;;;;;;;74.03;33.47;;;-0.30;99.90;;;;;;5075042;28;20020;-85
2020/12/11 04:29:22;;;;;;;83.03;33.22;;;-0.30;99.90;;;;;;5074691;28;20115;-82
2020/12/11 04:31:56;;;;;;;87.85;32.63;;;-0.20;99.90;;;;;;5074630;28;20107;-84
2020/12/11 04:34:21;;;;;;;76.25;33.33;;;-0.20;99.90;;;;;;5074584;28;20040;-83
2020/12/11 04:36:55;;;;;;;78.18;33.67;;;-0.20;99.90;;;;;;5092747;28;20095;-83
2020/12/11 04:39:22;;;;;;;77.10;31.15;;;-0.20;99.90;;;;;;5074559;28;20042;-83
2020/12/11 04:41:49;;;;;;;78.13;30.95;;;-0.20;99.90;;;;;;5074246;28;20494;-83
2020/12/11 04:44:15;;;;;;;75.57;33.17;;;-0.20;99.90;;;;;;5101830;28;20071;-83
2020/12/11 04:46:40;;;;;;;81.68;33.80;;;-0.20;99.90;;;;;;5054496;28;20059;-83
2020/12/11 04:49:07;;;;;;;78.15;29.45;;;-0.20;99.90;;;;;;5088004;28;20523;-83
2020/12/11 04:51:34;;;;;;;77.75;32.05;;;-0.20;99.90;;;;;;5054277;28;20111;-83
2020/12/11 04:54:02;;;;;;;109.28;41.35;;;-0.20;99.90;;;;;;5054283;28;20031;-84
2020/12/11 04:56:30;;;;;;;100.63;38.13;;;-0.20;99.90;;;;;;5072314;28;20485;-84
2020/12/11 04:58:56;;;;;;;73.65;33.33;;;-0.30;99.90;;;;;;5085554;28;20097;-82
2020/12/11 05:01:33;;;;;;;83.78;34.83;;;-0.30;99.90;;;;;;5095155;28;20055;-83
2020/12/11 05:04:01;;;;;;;63.05;28.35;;;-0.30;99.90;;;;;;5078229;28;20024;-82
2020/12/11 05:06:27;;;;;;;78.88;35.72;;;-0.20;99.90;;;;;;5077753;28;20028;-85
2020/12/11 05:09:12;;;;;;;77.60;33.58;;;-0.20;99.90;;;;;;5096216;28;20386;-84
2020/12/11 05:11:39;;;;;;;76.57;33.08;;;-0.20;99.90;;;;;;5078024;28;20043;-82
2020/12/11 05:14:17;;;;;;;77.25;30.70;;;-0.20;99.90;;;;;;5095756;28;20032;-83
2020/12/11 05:16:53;;;;;;;85.55;35.00;;;-0.20;99.90;;;;;;5077866;28;20024;-82
2020/12/11 05:19:19;;;;;;;77.20;33.53;;;-0.20;99.90;;;;;;5095720;28;20469;-82
2020/12/11 05:21:44;;;;;;;82.35;33.72;;;-0.20;99.90;;;;;;5077795;28;20070;-82
2020/12/11 05:24:10;;;;;;;77.82;34.42;;;-0.20;99.90;;;;;;5096000;28;20020;-83
2020/12/11 05:26:36;;;;;;;75.28;33.53;;;-0.20;99.90;;;;;;5077617;28;20103;-83
2020/12/11 05:29:03;;;;;;;76.30;34.83;;;-0.20;99.90;;;;;;5111578;28;20183;-82
2020/12/11 05:31:30;;;;;;;89.57;37.03;;;-0.30;99.90;;;;;;5077509;28;20017;-83
2020/12/11 05:34:13;;;;;;;71.53;32.28;;;-0.30;99.90;;;;;;5077243;28;20035;-83
2020/12/11 05:36:49;;;;;;;78.32;35.40;;;-0.30;99.90;;;;;;5111525;28;20359;-83
2020/12/11 05:39:34;;;;;;;84.85;34.28;;;-0.30;99.90;;;;;;5077461;28;20055;-83
2020/12/11 05:42:10;;;;;;;86.80;35.80;;;-0.30;99.90;;;;;;5073861;28;20016;-83
2020/12/11 05:44:36;;;;;;;85.72;34.85;;;-0.40;99.90;;;;;;5075631;28;20054;-82
2020/12/11 05:47:18;;;;;;;77.50;33.13;;;-0.40;99.90;;;;;;5076614;28;20024;-83
2020/12/11 05:49:44;;;;;;;75.07;34.15;;;-0.40;99.90;;;;;;5076191;28;20032;-82
2020/12/11 05:52:24;;;;;;;79.10;34.20;;;-0.40;99.90;;;;;;5110476;28;20056;-83
2020/12/11 05:54:54;;;;;;;83.47;34.13;;;-0.50;99.90;;;;;;5094606;28;20052;-83
2020/12/11 05:57:22;;;;;;;81.22;36.63;;;-0.50;99.90;;;;;;5075098;28;20016;-81
2020/12/11 05:59:47;;;;;;;79.28;33.88;;;-0.50;99.90;;;;;;5094484;28;20469;-82
2020/12/11 06:02:17;;;;;;;73.03;32.67;;;-0.60;99.90;;;;;;5076394;28;20115;-81
2020/12/11 06:04:46;;;;;;;87.80;34.70;;;-0.60;99.90;;;;;;5094326;28;20026;-81
2020/12/11 06:07:13;;;;;;;79.68;34.88;;;-0.70;99.90;;;;;;5075503;28;20028;-81
2020/12/11 06:09:41;;;;;;;80.28;35.97;;;-0.70;99.90;;;;;;5109888;28;20020;-81
2020/12/11 06:12:08;;;;;;;79.47;32.03;;;-0.70;99.90;;;;;;5076527;28;20084;-82
2020/12/11 06:14:40;;;;;;;71.97;33.90;;;-0.70;99.90;;;;;;5110834;28;20035;-81
2020/12/11 06:17:07;;;;;;;83.93;34.80;;;-0.70;99.90;;;;;;5094875;28;20099;-80
2020/12/11 06:19:44;;;;;;;103.90;43.80;;;-0.70;99.90;;;;;;5094311;28;20020;-80
2020/12/11 06:22:11;;;;;;;94.07;43.55;;;-0.70;99.90;;;;;;5089871;28;20450;-81
2020/12/11 06:24:37;;;;;;;80.47;35.17;;;-0.70;99.90;;;;;;5075879;28;20020;-80
2020/12/11 06:27:04;;;;;;;74.75;33.13;;;-0.80;99.90;;;;;;5077116;28;20466;-81
2020/12/11 06:29:40;;;;;;;80.00;34.53;;;-0.80;99.90;;;;;;5083268;28;20011;-81
2020/12/11 06:32:09;;;;;;;99.75;42.95;;;-0.80;99.90;;;;;;5080360;28;20065;-81
2020/12/11 06:34:35;;;;;;;746.03;283.50;;;-0.80;99.90;;;;;;5076124;28;20055;-81
2020/12/11 06:37:02;;;;;;;804.67;298.70;;;-0.80;99.90;;;;;;5074564;28;20362;-81
2020/12/11 06:39:45;;;;;;;457.08;143.00;;;-0.80;99.90;;;;;;5075361;28;20020;-80
2020/12/11 06:42:42;;;;;;;258.60;87.78;;;-0.80;99.90;;;;;;5075533;28;20035;-81
2020/12/11 06:45:25;;;;;;;287.25;92.95;;;-0.80;99.90;;;;;;5078057;28;20036;-81
2020/12/11 06:47:59;;;;;;;226.82;84.43;;;-0.80;99.90;;;;;;5093875;28;20032;-82
2020/12/11 06:50:30;;;;;;;149.70;60.45;;;-0.80;99.90;;;;;;5075975;28;20027;-81
2020/12/11 06:52:56;;;;;;;118.70;46.30;;;-0.90;99.90;;;;;;5093704;28;20054;-82
2020/12/11 06:55:22;;;;;;;106.00;46.47;;;-0.90;99.90;;;;;;5073858;28;20252;-81
2020/12/11 06:57:49;;;;;;;90.82;39.58;;;-1.00;99.90;;;;;;5073949;28;20543;-81
2020/12/11 07:00:24;;;;;;;89.75;37.45;;;-1.00;99.90;;;;;;5090398;28;20482;-81
2020/12/11 07:03:15;;;;;;;91.32;36.28;;;-1.10;99.90;;;;;;5072650;28;20016;-81
2020/12/11 07:05:41;;;;;;;77.15;35.08;;;-1.20;99.90;;;;;;5074189;28;20397;-78
2020/12/11 07:08:13;;;;;;;84.70;36.17;;;-1.20;99.90;;;;;;5082361;28;20024;-79
2020/12/11 07:10:40;;;;;;;70.95;31.88;;;-1.30;99.90;;;;;;5092155;28;20085;-78
2020/12/11 07:13:10;;;;;;;74.38;34.70;;;-1.30;99.90;;;;;;5092342;28;20028;-79
2020/12/11 07:15:36;;;;;;;79.20;35.03;;;-1.40;99.90;;;;;;5074327;28;20042;-79
2020/12/11 07:18:03;;;;;;;70.57;31.73;;;-1.40;99.90;;;;;;5092850;28;20073;-79
2020/12/11 07:20:29;;;;;;;75.07;31.85;;;-1.40;99.90;;;;;;5074104;28;20111;-79
2020/12/11 07:22:59;;;;;;;79.00;34.25;;;-1.50;99.90;;;;;;5091767;28;20430;-79
2020/12/11 07:25:26;;;;;;;84.78;37.53;;;-1.50;99.90;;;;;;5074521;28;20027;-79
2020/12/11 07:28:03;;;;;;;74.28;30.17;;;-1.40;99.90;;;;;;5063253;28;20093;-79
2020/12/11 07:30:29;;;;;;;70.38;30.70;;;-1.50;99.90;;;;;;5037869;28;20084;-79
2020/12/11 07:32:55;;;;;;;69.32;28.90;;;-1.50;99.90;;;;;;5050066;28;20031;-79
2020/12/11 07:35:22;;;;;;;86.68;32.90;;;-1.50;99.90;;;;;;5051540;28;20127;-78
2020/12/11 07:37:52;;;;;;;72.57;30.15;;;-1.50;99.90;;;;;;5049955;28;20031;-79
2020/12/11 07:40:19;;;;;;;72.13;32.22;;;-1.50;99.90;;;;;;5063601;28;20484;-78
2020/12/11 07:42:47;;;;;;;73.65;31.63;;;-1.40;99.90;;;;;;5062334;28;20081;-78
2020/12/11 07:45:26;;;;;;;76.05;32.83;;;-1.50;99.90;;;;;;5064736;28;20568;-79
2020/12/11 07:47:53;;;;;;;73.30;30.27;;;-1.50;99.90;;;;;;5040983;28;20024;-78
2020/12/11 07:50:24;;;;;;;76.50;35.17;;;-1.50;99.90;;;;;;5064721;28;20174;-78
2020/12/11 07:52:55;;;;;;;79.10;34.95;;;-1.50;99.90;;;;;;5052792;28;20028;-78
2020/12/11 07:55:21;;;;;;;81.05;35.83;;;-1.50;99.90;;;;;;5073963;28;20051;-80
2020/12/11 07:57:52;;;;;;;79.60;33.50;;;-1.60;99.90;;;;;;5074041;28;20031;-80
2020/12/11 08:00:18;;;;;;;78.50;32.97;;;-1.60;99.90;;;;;;5072656;28;20035;-80
2020/12/11 08:02:43;;;;;;;70.60;34.45;;;-1.50;99.90;;;;;;5073945;28;20020;-79
2020/12/11 08:05:10;;;;;;;84.50;37.30;;;-1.50;99.90;;;;;;5073458;28;20370;-79
2020/12/11 08:07:36;;;;;;;76.45;33.47;;;-1.50;99.90;;;;;;5073817;28;20032;-79
2020/12/11 08:10:08;;;;;;;66.90;32.25;;;-1.40;99.90;;;;;;5073746;28;20090;-79
2020/12/11 08:12:34;;;;;;;63.07;32.17;;;-1.40;99.90;;;;;;5091684;28;20069;-79
2020/12/11 08:14:59;;;;;;;80.43;33.35;;;-1.30;99.90;;;;;;5092267;28;20109;-79
2020/12/11 08:17:28;;;;;;;72.70;31.30;;;-1.30;99.90;;;;;;5091345;28;20478;-79
2020/12/11 08:19:58;;;;;;;68.28;30.80;;;-1.20;99.90;;;;;;5073684;28;20020;-79
2020/12/11 08:22:30;;;;;;;78.07;35.78;;;-1.10;99.90;;;;;;5073260;28;20040;-79
2020/12/11 08:24:56;;;;;;;61.90;29.93;;;-1.10;99.90;;;;;;5073745;28;20020;-79
2020/12/11 08:27:24;;;;;;;75.05;31.95;;;-1.00;99.90;;;;;;5090364;28;20354;-79
2020/12/11 08:30:13;;;;;;;76.35;33.25;;;-0.90;99.90;;;;;;5074667;28;20031;-79
2020/12/11 08:32:39;;;;;;;84.13;34.20;;;-0.80;99.90;;;;;;5091253;28;20017;-79
2020/12/11 08:35:25;;;;;;;84.57;36.00;;;-0.80;99.90;;;;;;5093692;28;20036;-79
2020/12/11 08:37:58;;;;;;;88.90;34.20;;;-0.60;99.90;;;;;;5095866;28;20043;-80
2020/12/11 08:40:25;;;;;;;83.90;40.80;;;-0.60;99.90;;;;;;5096446;28;20016;-79
2020/12/11 08:45:35;;;;;;;97.10;40.60;;;-0.40;99.90;;;;;;5096934;28;20098;-78
2020/12/11 08:50:47;;;;;;;94.35;39.10;;;-0.20;99.90;;;;;;5096930;28;20039;-78
2020/12/11 08:53:14;;;;;;;96.30;42.90;;;-0.10;99.90;;;;;;5078273;28;20074;-79
2020/12/11 08:55:40;;;;;;;98.80;44.55;;;0.10;99.90;;;;;;5096385;28;20024;-79
2020/12/11 08:58:07;;;;;;;91.28;41.90;;;0.10;99.90;;;;;;5077078;28;20408;-79
2020/12/11 09:00:34;;;;;;;85.63;40.03;;;0.30;99.90;;;;;;5076692;28;20031;-79
2020/12/11 09:02:59;;;;;;;82.40;37.47;;;0.30;99.90;;;;;;5110897;28;20020;-79
2020/12/11 09:05:25;;;;;;;88.05;39.45;;;0.30;99.90;;;;;;5077883;28;20020;-79
2020/12/11 09:07:52;;;;;;;76.63;35.42;;;0.20;99.90;;;;;;5112029;28;20030;-79
2020/12/11 09:10:18;;;;;;;71.40;33.75;;;0.20;99.90;;;;;;5077599;28;20286;-79
2020/12/11 09:12:46;;;;;;;80.78;36.33;;;0.20;99.90;;;;;;5096176;28;20042;-79
2020/12/11 09:15:13;;;;;;;76.60;32.78;;;0.30;99.90;;;;;;5095996;28;20032;-78
2020/12/11 09:17:39;;;;;;;81.70;35.40;;;0.30;99.90;;;;;;5095949;28;20047;-78
2020/12/11 09:20:06;;;;;;;76.65;35.70;;;0.40;99.90;;;;;;5096354;28;20108;-79
2020/12/11 09:22:32;;;;;;;76.82;34.00;;;0.40;99.90;;;;;;5077756;28;20030;-79
2020/12/11 09:24:58;;;;;;;79.57;37.03;;;0.40;99.90;;;;;;5095727;28;20063;-78
2020/12/11 09:27:24;;;;;;;76.90;36.42;;;0.50;99.90;;;;;;5077628;28;20032;-78
2020/12/11 09:29:52;;;;;;;85.18;38.10;;;0.60;99.90;;;;;;5095758;28;20031;-78
2020/12/11 09:32:30;;;;;;;76.85;36.90;;;0.60;99.90;;;;;;5095319;28;20016;-78
2020/12/11 09:34:56;;;;;;;88.63;38.33;;;0.60;99.90;;;;;;5095791;28;20028;-78
2020/12/11 09:37:21;;;;;;;77.20;36.17;;;0.70;99.90;;;;;;5095644;28;20030;-78
2020/12/11 09:39:47;;;;;;;83.07;38.50;;;0.70;99.90;;;;;;5095712;28;20035;-78
2020/12/11 09:42:34;;;;;;;80.63;38.53;;;0.70;99.90;;;;;;5095554;28;20025;-78
2020/12/11 09:45:18;;;;;;;90.22;41.65;;;0.70;99.90;;;;;;5111041;28;20023;-78
2020/12/11 09:55:00;;;;;;;85.47;38.90;;;0.90;99.90;;;;;;5095553;28;20039;-78
2020/12/11 09:57:26;;;;;;;92.53;40.45;;;0.80;99.90;;;;;;5095449;28;20036;-78
2020/12/11 09:59:56;;;;;;;103.43;47.45;;;0.80;99.90;;;;;;5111105;28;20485;-78
2020/12/11 10:02:35;;;;;;;92.15;42.58;;;0.90;99.90;;;;;;5077182;28;20469;-78
2020/12/11 10:05:01;;;;;;;95.72;43.75;;;0.90;99.90;;;;;;5110963;28;20462;-78
2020/12/11 10:07:27;;;;;;;91.07;42.30;;;0.90;99.90;;;;;;5095103;28;20107;-78
2020/12/11 10:09:52;;;;;;;97.95;41.78;;;0.90;99.90;;;;;;5094680;28;20044;-78
2020/12/11 10:12:21;;;;;;;97.65;44.25;;;0.90;99.90;;;;;;5094888;28;20462;-78
2020/12/11 10:14:53;;;;;;;98.25;41.78;;;0.90;99.90;;;;;;5094701;28;20039;-79
2020/12/11 10:17:19;;;;;;;97.88;46.63;;;1.00;99.90;;;;;;5094439;28;20469;-78
2020/12/11 10:19:48;;;;;;;105.68;46.63;;;1.00;99.90;;;;;;5094724;28;20039;-78
2020/12/11 10:22:13;;;;;;;110.43;45.70;;;1.00;99.90;;;;;;5076696;28;20028;-78
2020/12/11 10:24:39;;;;;;;100.75;43.63;;;1.20;99.90;;;;;;5094703;28;20024;-78
2020/12/11 10:27:05;;;;;;;95.28;43.35;;;1.20;99.90;;;;;;5076492;28;20016;-79
2020/12/11 10:29:30;;;;;;;104.88;44.50;;;1.20;99.90;;;;;;5094410;28;20031;-78
2020/12/11 10:31:56;;;;;;;111.78;46.75;;;1.30;99.90;;;;;;5076584;28;20024;-78
2020/12/11 10:34:22;;;;;;;91.40;41.40;;;1.40;99.90;;;;;;5076658;28;20477;-79
2020/12/11 10:36:48;;;;;;;85.82;39.92;;;1.40;99.90;;;;;;5094603;28;20030;-79
2020/12/11 10:39:13;;;;;;;86.13;39.65;;;1.50;99.90;;;;;;5094487;28;20048;-79
2020/12/11 10:41:39;;;;;;;81.47;38.97;;;1.50;99.90;;;;;;5094516;28;20091;-78
2020/12/11 10:44:06;;;;;;;83.53;37.42;;;1.50;99.90;;;;;;5075781;28;20027;-78
2020/12/11 10:46:31;;;;;;;90.80;44.58;;;1.50;99.90;;;;;;5110046;28;20073;-78
2020/12/11 10:48:57;;;;;;;109.15;49.65;;;1.50;99.90;;;;;;5109720;28;20020;-78
2020/12/11 10:51:23;;;;;;;121.03;56.20;;;1.40;99.90;;;;;;5094499;28;20024;-78
2020/12/11 10:53:49;;;;;;;111.65;51.03;;;1.50;99.90;;;;;;5071924;28;20032;-79
2020/12/11 10:56:15;;;;;;;120.10;53.92;;;1.40;99.90;;;;;;5093734;28;20031;-79
2020/12/11 10:58:41;;;;;;;115.53;54.78;;;1.50;99.90;;;;;;5074552;28;20028;-79
2020/12/11 11:01:10;;;;;;;123.25;55.45;;;1.50;99.90;;;;;;5093595;28;20103;-78
2020/12/11 11:03:37;;;;;;;128.48;53.58;;;1.50;99.90;;;;;;5073918;28;20115;-78
2020/12/11 11:11:43;;;;;;;106.28;49.90;;;1.50;99.90;;;;;;5081785;28;20554;-78
2020/12/11 11:25:00;;;;;;;193.73;77.22;;;1.60;99.90;;;;;;5093357;28;20538;-78
2020/12/11 11:29:50;;;;;;;91.47;39.08;;;1.70;99.90;;;;;;5093458;28;20032;-78
2020/12/11 11:32:16;;;;;;;89.28;41.60;;;1.60;99.90;;;;;;5092565;28;20521;-78
2020/12/11 11:34:41;;;;;;;83.53;39.15;;;1.70;99.90;;;;;;5074526;28;20040;-79
2020/12/11 11:37:07;;;;;;;106.82;45.75;;;1.60;99.90;;;;;;5092798;28;20097;-79
2020/12/11 11:39:33;;;;;;;78.78;39.78;;;1.70;99.90;;;;;;5092661;28;20165;-79
2020/12/11 11:41:58;;;;;;;110.38;49.75;;;1.70;99.90;;;;;;5092595;28;20024;-78
2020/12/11 11:44:59;;;;;;;82.07;40.25;;;1.70;99.90;;;;;;5092373;28;20047;-78
2020/12/11 11:47:16;;;;;;;112.82;48.80;;;1.70;99.90;;;;;;5090267;28;20036;-78
2020/12/11 11:55:02;;;;;;;210.70;85.43;;;1.80;99.90;;;;;;5107559;28;20496;-78
2020/12/11 11:57:27;;;;;;;113.65;50.63;;;1.90;99.90;;;;;;5095394;28;20095;-78
2020/12/11 11:59:53;;;;;;;113.10;47.55;;;1.90;99.90;;;;;;5093106;28;20107;-79
2020/12/11 12:02:19;;;;;;;108.03;43.42;;;2.00;99.90;;;;;;5092559;28;20035;-79
2020/12/11 12:04:45;;;;;;;174.10;74.13;;;1.90;99.90;;;;;;5093166;28;20016;-78
2020/12/11 12:07:10;;;;;;;187.95;78.25;;;1.90;99.90;;;;;;5074842;28;20021;-78
2020/12/11 12:09:36;;;;;;;192.15;82.85;;;1.90;99.90;;;;;;5092859;28;20078;-78
2020/12/11 12:12:02;;;;;;;164.43;65.20;;;1.80;99.90;;;;;;5092862;28;20028;-78
2020/12/11 12:14:27;;;;;;;169.25;71.68;;;1.90;99.90;;;;;;5093262;28;20040;-79
2020/12/11 12:16:58;;;;;;;124.72;57.15;;;1.90;99.90;;;;;;5074822;28;20032;-78
2020/12/11 12:19:37;;;;;;;153.25;69.40;;;1.80;99.90;;;;;;5074917;28;20381;-78
2020/12/11 12:27:34;;;;;;;116.85;49.78;;;1.60;99.90;;;;;;5090367;28;20081;-78
2020/12/11 12:30:00;;;;;;;162.55;66.95;;;1.40;99.90;;;;;;5077269;28;20105;-78
2020/12/11 12:32:28;;;;;;;156.45;59.55;;;1.30;99.90;;;;;;5091224;28;20474;-79
2020/12/11 12:44:56;;;;;;;105.22;45.45;;;1.20;99.90;;;;;;5090838;28;20574;-79
2020/12/11 12:47:22;;;;;;;91.00;42.15;;;1.10;99.90;;;;;;5073140;28;20103;-81
2020/12/11 12:49:48;;;;;;;114.07;45.75;;;1.00;99.90;;;;;;5071788;28;20081;-79
2020/12/11 12:52:13;;;;;;;126.68;48.92;;;0.80;99.90;;;;;;5070031;28;20478;-79
2020/12/11 12:54:41;;;;;;;119.32;47.63;;;0.80;99.90;;;;;;5091909;28;20078;-78
2020/12/11 12:57:14;;;;;;;112.60;46.63;;;0.60;99.90;;;;;;5090343;28;20127;-79
2020/12/11 13:00:05;;;;;;;121.90;46.05;;;0.50;99.90;;;;;;5070777;28;20059;-79
2020/12/11 13:02:49;;;;;;;123.28;50.45;;;0.40;99.90;;;;;;5091423;28;20143;-79
2020/12/11 13:05:15;;;;;;;121.68;41.80;;;0.30;99.90;;;;;;5089568;28;20458;-81
2020/12/11 13:07:41;;;;;;;107.78;41.08;;;0.30;99.90;;;;;;5091777;28;20107;-78
2020/12/11 13:10:07;;;;;;;118.25;41.80;;;0.20;99.90;;;;;;5106831;28;20035;-78
2020/12/11 13:12:33;;;;;;;104.90;40.60;;;0.00;99.90;;;;;;5091984;28;20018;-79
2020/12/11 13:14:59;;;;;;;107.13;40.08;;;-0.10;99.90;;;;;;5075383;28;20024;-79
2020/12/11 13:17:25;;;;;;;112.60;40.58;;;-0.20;99.90;;;;;;5093293;28;20069;-79
2020/12/11 13:19:51;;;;;;;108.32;39.55;;;-0.30;99.90;;;;;;5091825;28;20024;-79
2020/12/11 13:27:32;;;;;;;210.07;63.20;;;-0.30;99.90;;;;;;5094105;28;20066;-79
2020/12/11 13:29:58;;;;;;;171.52;51.88;;;-0.30;99.90;;;;;;5075983;28;20048;-79
2020/12/11 13:32:27;;;;;;;167.50;58.83;;;-0.40;99.90;;;;;;5091437;28;20030;-79